Time;durP1;ratioP1;P1;durP2;ratioP2;P2;SDS_P1;SDS_P2;PMS_P1;PMS_P2;Temp;Humidity;BMP_temperature;BMP_pressure;BME280_temperature;BME280_humidity;BME280_pressure;Samples;Min_cycle;Max_cycle;Signal;HPM_P1;HPM_P2
2023/10/21 00:00:33;;;;;;;3.00;2.27;;;12.40;99.90;;;;;;5032053;28;20842;-65
2023/10/21 00:03:01;;;;;;;3.13;2.10;;;12.40;99.90;;;;;;5034995;28;20506;-65
2023/10/21 00:05:28;;;;;;;5.60;2.60;;;12.40;99.90;;;;;;5034624;28;20459;-66
2023/10/21 00:07:57;;;;;;;4.17;2.50;;;12.40;99.90;;;;;;5037988;27;20548;-64
2023/10/21 00:10:24;;;;;;;3.80;2.67;;;12.40;99.90;;;;;;5035254;28;20467;-64
2023/10/21 00:12:51;;;;;;;2.80;2.50;;;12.40;99.90;;;;;;5037299;27;20585;-65
2023/10/21 00:15:18;;;;;;;4.40;2.50;;;12.50;99.90;;;;;;5033236;28;20465;-66
2023/10/21 00:17:45;;;;;;;2.63;2.30;;;12.50;99.90;;;;;;5052493;27;20487;-65
2023/10/21 00:20:14;;;;;;;2.83;2.17;;;12.50;99.90;;;;;;5138099;27;20458;-65
2023/10/21 00:22:41;;;;;;;3.60;2.53;;;12.50;99.90;;;;;;5139050;27;20533;-65
2023/10/21 00:25:10;;;;;;;6.10;2.53;;;12.50;99.90;;;;;;5138482;27;20472;-65
2023/10/21 00:27:37;;;;;;;6.40;2.63;;;12.50;99.90;;;;;;5139153;27;20503;-65
2023/10/21 00:30:05;;;;;;;3.10;2.10;;;12.50;99.90;;;;;;5138717;27;20455;-64
2023/10/21 00:32:33;;;;;;;4.77;2.50;;;12.50;99.90;;;;;;5137953;27;20465;-65
2023/10/21 00:35:00;;;;;;;3.57;2.30;;;12.50;99.90;;;;;;5137213;27;20882;-64
2023/10/21 00:37:27;;;;;;;4.27;2.70;;;12.60;99.90;;;;;;5137001;27;20819;-64
2023/10/21 00:39:54;;;;;;;3.30;2.33;;;12.60;99.90;;;;;;5136404;27;20527;-64
2023/10/21 00:42:23;;;;;;;3.23;2.40;;;12.60;99.90;;;;;;5136990;27;20462;-65
2023/10/21 00:44:50;;;;;;;3.17;2.20;;;12.60;99.90;;;;;;5116599;27;20447;-65
2023/10/21 00:47:17;;;;;;;2.43;2.07;;;12.70;99.90;;;;;;5032865;28;20459;-65
2023/10/21 00:49:45;;;;;;;3.03;2.30;;;12.70;99.90;;;;;;5032716;28;20498;-65
2023/10/21 00:52:14;;;;;;;5.33;2.50;;;12.60;99.90;;;;;;5032698;28;20546;-65
2023/10/21 00:54:41;;;;;;;2.77;2.37;;;12.60;99.90;;;;;;5034080;28;20491;-65
2023/10/21 00:57:09;;;;;;;3.27;2.50;;;12.60;99.90;;;;;;5034295;28;20550;-65
2023/10/21 00:59:40;;;;;;;4.20;2.33;;;12.70;99.90;;;;;;5034320;28;20465;-65
2023/10/21 01:02:07;;;;;;;4.47;2.00;;;12.70;99.90;;;;;;5033863;28;20459;-65
2023/10/21 01:04:34;;;;;;;2.50;2.00;;;12.70;99.90;;;;;;5034326;28;20835;-65
2023/10/21 01:07:02;;;;;;;2.80;2.20;;;12.70;99.90;;;;;;5033845;28;20487;-66
2023/10/21 01:09:30;;;;;;;3.70;2.10;;;12.80;99.90;;;;;;5034180;28;20892;-66
2023/10/21 01:11:57;;;;;;;2.70;2.30;;;12.70;99.90;;;;;;5034227;28;20563;-65
2023/10/21 01:14:24;;;;;;;3.77;2.27;;;12.70;99.90;;;;;;5034484;28;20526;-66
2023/10/21 01:16:53;;;;;;;3.17;2.20;;;12.60;99.90;;;;;;5033870;28;20844;-66
2023/10/21 01:19:20;;;;;;;3.50;2.40;;;12.60;99.90;;;;;;5034029;28;20434;-66
2023/10/21 01:21:47;;;;;;;3.03;2.40;;;12.60;99.90;;;;;;5033954;28;20528;-66
2023/10/21 01:24:15;;;;;;;4.73;2.60;;;12.60;99.90;;;;;;5035324;28;20462;-66
2023/10/21 01:26:43;;;;;;;3.90;2.20;;;12.50;99.90;;;;;;5038020;28;20460;-65
2023/10/21 01:29:10;;;;;;;3.10;2.30;;;12.60;99.90;;;;;;5037270;28;20538;-66
2023/10/21 01:31:37;;;;;;;2.83;2.40;;;12.50;99.90;;;;;;5037350;28;20549;-66
2023/10/21 01:34:04;;;;;;;4.60;2.50;;;12.50;99.90;;;;;;5037716;28;20469;-66
2023/10/21 01:36:31;;;;;;;4.27;2.87;;;12.50;99.90;;;;;;5037448;28;20470;-66
2023/10/21 01:38:59;;;;;;;3.10;2.10;;;12.50;99.90;;;;;;5036858;28;20463;-67
2023/10/21 01:41:27;;;;;;;3.27;2.60;;;12.60;99.90;;;;;;5037298;28;20493;-66
2023/10/21 01:43:55;;;;;;;3.67;2.90;;;12.60;99.90;;;;;;5037283;28;20482;-64
2023/10/21 01:46:22;;;;;;;4.70;2.53;;;12.60;99.90;;;;;;5037426;28;20433;-64
2023/10/21 01:48:50;;;;;;;3.70;2.30;;;12.60;99.90;;;;;;5037407;28;20463;-64
2023/10/21 01:51:17;;;;;;;4.07;2.67;;;12.70;99.90;;;;;;5037321;28;20469;-65
2023/10/21 01:53:45;;;;;;;4.30;2.70;;;12.80;99.90;;;;;;5036128;28;20777;-63
2023/10/21 01:56:12;;;;;;;3.40;2.40;;;12.80;99.90;;;;;;5037568;28;20444;-64
2023/10/21 01:58:40;;;;;;;2.83;2.07;;;12.80;99.90;;;;;;5037530;28;20459;-66
2023/10/21 02:01:11;;;;;;;3.57;2.30;;;12.80;99.90;;;;;;5036981;28;20927;-66
2023/10/21 02:03:38;;;;;;;2.90;2.20;;;12.80;99.90;;;;;;5036845;28;20455;-67
2023/10/21 02:06:07;;;;;;;3.00;2.43;;;12.80;99.90;;;;;;5037048;28;20506;-66
2023/10/21 02:08:34;;;;;;;3.60;1.90;;;12.80;99.90;;;;;;5036610;28;20465;-65
2023/10/21 02:11:02;;;;;;;7.37;2.40;;;12.80;99.90;;;;;;5036506;28;20459;-65
2023/10/21 02:13:29;;;;;;;4.13;2.20;;;12.80;99.90;;;;;;5036930;28;20491;-66
2023/10/21 02:15:58;;;;;;;2.87;2.10;;;12.80;99.90;;;;;;5036894;28;20438;-65
2023/10/21 02:18:25;;;;;;;3.10;2.23;;;12.70;99.90;;;;;;5036864;28;20444;-66
2023/10/21 02:20:52;;;;;;;3.10;2.20;;;12.70;99.90;;;;;;5036651;28;20916;-66
2023/10/21 02:23:19;;;;;;;3.37;2.30;;;12.70;99.90;;;;;;5036593;28;20842;-66
2023/10/21 02:25:47;;;;;;;4.80;2.70;;;12.70;99.90;;;;;;5036947;28;20434;-66
2023/10/21 02:28:14;;;;;;;4.10;3.70;;;12.70;99.90;;;;;;5036680;28;20466;-66
2023/10/21 02:30:42;;;;;;;3.10;2.53;;;12.80;99.90;;;;;;5036749;28;20469;-66
2023/10/21 02:33:11;;;;;;;3.27;2.60;;;12.80;99.90;;;;;;5036780;28;20744;-66
2023/10/21 02:35:38;;;;;;;3.43;2.60;;;12.80;99.90;;;;;;5035644;28;20459;-66
2023/10/21 02:38:05;;;;;;;3.23;2.40;;;12.80;99.90;;;;;;5036499;28;20430;-67
2023/10/21 02:40:32;;;;;;;2.50;2.10;;;12.80;99.90;;;;;;5036639;28;20645;-67
2023/10/21 02:42:59;;;;;;;3.17;2.60;;;12.80;99.90;;;;;;5036302;28;20554;-67
2023/10/21 02:45:27;;;;;;;4.33;2.53;;;12.80;99.90;;;;;;5036060;28;20542;-67
2023/10/21 02:47:54;;;;;;;3.10;2.40;;;12.80;99.90;;;;;;5036525;28;20512;-67
2023/10/21 02:50:22;;;;;;;3.13;2.33;;;12.80;99.90;;;;;;5036269;28;20481;-66
2023/10/21 02:52:51;;;;;;;3.27;2.60;;;12.70;99.90;;;;;;5036413;28;20459;-66
2023/10/21 02:55:18;;;;;;;3.37;2.50;;;12.70;99.90;;;;;;5036228;28;20491;-66
2023/10/21 02:57:46;;;;;;;3.00;2.70;;;12.80;99.90;;;;;;5036596;28;20964;-66
2023/10/21 03:00:17;;;;;;;3.73;2.80;;;12.80;99.90;;;;;;5036239;28;20902;-65
2023/10/21 03:02:44;;;;;;;3.00;2.70;;;12.80;99.90;;;;;;5036594;28;20481;-66
2023/10/21 03:05:12;;;;;;;3.47;2.93;;;12.80;99.90;;;;;;5036017;28;20558;-65
2023/10/21 03:07:42;;;;;;;4.23;2.60;;;12.90;99.90;;;;;;5035746;28;20565;-65
2023/10/21 03:10:10;;;;;;;4.40;2.70;;;12.80;99.90;;;;;;5036198;28;20810;-66
2023/10/21 03:12:37;;;;;;;4.10;2.50;;;12.90;99.90;;;;;;5035652;28;20546;-65
2023/10/21 03:15:06;;;;;;;2.47;2.00;;;12.90;99.90;;;;;;5035129;28;20581;-65
2023/10/21 03:17:33;;;;;;;2.90;2.43;;;12.90;99.90;;;;;;5035945;28;20467;-65
2023/10/21 03:20:00;;;;;;;3.07;2.77;;;12.90;99.90;;;;;;5036218;28;20474;-65
2023/10/21 03:22:28;;;;;;;3.03;2.47;;;12.90;99.90;;;;;;5036257;28;20463;-66
2023/10/21 03:24:56;;;;;;;3.10;2.67;;;13.00;99.90;;;;;;5035395;28;20881;-65
2023/10/21 03:27:25;;;;;;;4.40;3.07;;;13.00;99.90;;;;;;5035820;28;20466;-65
2023/10/21 03:29:52;;;;;;;4.57;2.90;;;12.90;99.90;;;;;;5035446;28;20442;-65
2023/10/21 03:32:19;;;;;;;4.70;3.10;;;13.00;99.90;;;;;;5035889;28;20554;-65
2023/10/21 03:34:46;;;;;;;3.40;2.50;;;13.00;99.90;;;;;;5035769;28;20579;-65
2023/10/21 03:37:13;;;;;;;3.87;2.70;;;13.00;99.90;;;;;;5035883;28;20521;-65
2023/10/21 03:39:41;;;;;;;3.23;2.80;;;13.10;99.90;;;;;;5035667;28;20461;-65
2023/10/21 03:42:09;;;;;;;6.03;2.80;;;13.00;99.90;;;;;;5035780;28;20468;-65
2023/10/21 03:44:36;;;;;;;3.20;2.60;;;13.10;99.90;;;;;;5035740;28;20967;-67
2023/10/21 03:47:04;;;;;;;3.83;3.43;;;13.10;99.90;;;;;;5034779;28;20437;-66
2023/10/21 03:49:31;;;;;;;5.60;3.20;;;13.10;99.90;;;;;;5035331;28;20459;-65
2023/10/21 03:51:58;;;;;;;5.73;3.70;;;13.10;99.90;;;;;;5035178;28;20506;-66
2023/10/21 03:54:25;;;;;;;8.03;4.10;;;13.10;99.90;;;;;;5035829;28;20582;-66
2023/10/21 03:56:53;;;;;;;6.97;4.10;;;13.10;99.90;;;;;;5034873;28;20528;-66
2023/10/21 03:59:21;;;;;;;5.50;4.87;;;13.10;99.90;;;;;;5035209;28;20550;-66
2023/10/21 04:01:48;;;;;;;8.80;4.83;;;13.10;99.90;;;;;;5035270;28;20508;-65
2023/10/21 04:04:15;;;;;;;4.20;3.80;;;13.10;99.90;;;;;;5035774;28;20558;-66
2023/10/21 04:06:43;;;;;;;4.87;4.40;;;13.10;99.90;;;;;;5035546;28;20463;-66
2023/10/21 04:09:11;;;;;;;4.87;4.17;;;13.10;99.90;;;;;;5035214;28;20524;-66
2023/10/21 04:11:39;;;;;;;4.33;3.63;;;13.10;99.90;;;;;;5034965;28;20467;-65
2023/10/21 04:14:06;;;;;;;4.53;4.13;;;13.10;99.90;;;;;;5034531;28;20498;-65
2023/10/21 04:16:35;;;;;;;4.60;4.10;;;13.10;99.90;;;;;;5034684;28;20773;-66
2023/10/21 04:19:02;;;;;;;3.73;3.40;;;13.10;99.90;;;;;;5034591;28;20466;-66
2023/10/21 04:21:29;;;;;;;4.80;4.30;;;13.10;99.90;;;;;;5034573;28;20462;-66
2023/10/21 04:23:57;;;;;;;4.67;4.20;;;13.10;99.90;;;;;;5035110;28;20459;-65
2023/10/21 04:26:24;;;;;;;4.40;4.00;;;13.10;99.90;;;;;;5035203;28;20462;-66
2023/10/21 04:28:51;;;;;;;4.70;4.27;;;13.10;99.90;;;;;;5034850;28;20931;-66
2023/10/21 04:31:18;;;;;;;6.93;5.00;;;13.10;99.90;;;;;;5034502;28;20463;-67
2023/10/21 04:33:47;;;;;;;5.83;5.20;;;13.10;99.90;;;;;;5035013;28;20470;-67
2023/10/21 04:36:18;;;;;;;6.97;5.17;;;13.10;99.90;;;;;;5035051;28;20959;-67
2023/10/21 04:38:46;;;;;;;5.63;5.13;;;13.10;99.90;;;;;;5034660;28;20565;-66
2023/10/21 04:41:13;;;;;;;6.17;5.40;;;13.20;99.90;;;;;;5034829;28;20483;-66
2023/10/21 04:43:40;;;;;;;8.40;5.90;;;13.20;99.90;;;;;;5034326;28;20466;-65
2023/10/21 04:46:07;;;;;;;7.40;6.70;;;13.30;99.90;;;;;;5034668;28;20797;-66
2023/10/21 04:48:35;;;;;;;10.73;8.57;;;13.30;99.90;;;;;;5034726;28;20464;-67
2023/10/21 04:51:04;;;;;;;8.73;7.90;;;13.30;99.90;;;;;;5034067;28;20467;-65
2023/10/21 04:53:31;;;;;;;6.10;5.50;;;13.30;99.90;;;;;;5034903;28;20717;-65
2023/10/21 04:55:58;;;;;;;8.50;5.70;;;13.20;99.90;;;;;;5035067;28;20491;-69
2023/10/21 04:58:25;;;;;;;8.13;4.63;;;13.30;99.90;;;;;;5035564;28;20811;-68
2023/10/21 05:00:52;;;;;;;4.63;4.10;;;13.30;99.90;;;;;;5034700;28;20474;-66
2023/10/21 05:03:20;;;;;;;4.23;3.40;;;13.20;99.90;;;;;;5034474;28;20881;-66
2023/10/21 05:05:47;;;;;;;5.40;3.90;;;13.30;99.90;;;;;;5034429;28;20459;-66
2023/10/21 05:08:17;;;;;;;4.43;3.93;;;13.30;99.90;;;;;;5033954;28;20590;-65
2023/10/21 05:10:45;;;;;;;6.00;3.73;;;13.30;99.90;;;;;;5034571;28;20459;-67
2023/10/21 05:13:12;;;;;;;4.43;3.70;;;13.30;99.90;;;;;;5033815;28;20561;-65
2023/10/21 05:15:40;;;;;;;4.43;3.90;;;13.30;99.90;;;;;;5033308;28;20473;-66
2023/10/21 05:18:08;;;;;;;4.83;4.37;;;13.30;99.90;;;;;;5034383;28;20517;-66
2023/10/21 05:20:35;;;;;;;5.70;3.67;;;13.30;99.90;;;;;;5034073;28;20459;-66
2023/10/21 05:23:02;;;;;;;4.67;4.17;;;13.40;99.90;;;;;;5033499;28;20465;-65
2023/10/21 05:25:31;;;;;;;3.90;3.50;;;13.30;99.90;;;;;;5033830;28;20922;-65
2023/10/21 05:27:58;;;;;;;5.83;3.80;;;13.30;99.90;;;;;;5033595;28;20440;-65
2023/10/21 05:30:25;;;;;;;4.73;3.90;;;13.30;99.90;;;;;;5033899;28;20566;-65
2023/10/21 05:32:52;;;;;;;5.53;3.73;;;13.20;99.90;;;;;;5033814;28;20888;-65
2023/10/21 05:35:21;;;;;;;5.63;3.67;;;13.30;99.90;;;;;;5032574;28;20498;-64
2023/10/21 05:37:48;;;;;;;8.53;4.40;;;13.30;99.90;;;;;;5033004;28;20444;-65
2023/10/21 05:40:15;;;;;;;9.53;4.07;;;13.30;99.90;;;;;;5032886;28;20562;-65
2023/10/21 05:42:44;;;;;;;5.53;4.47;;;13.20;99.90;;;;;;5033194;28;20491;-65
2023/10/21 05:45:11;;;;;;;5.67;4.57;;;13.20;99.90;;;;;;5032823;28;20537;-65
2023/10/21 05:47:38;;;;;;;7.07;4.30;;;13.10;99.90;;;;;;5032305;28;20444;-64
2023/10/21 05:50:07;;;;;;;4.97;3.70;;;13.10;99.90;;;;;;5032390;28;20494;-65
2023/10/21 05:52:34;;;;;;;5.10;4.20;;;13.10;99.90;;;;;;5033707;28;20463;-65
2023/10/21 05:55:04;;;;;;;7.53;4.50;;;13.00;99.90;;;;;;5033216;28;20495;-65
2023/10/21 05:57:31;;;;;;;4.70;4.10;;;12.90;99.90;;;;;;5033662;28;20503;-66
2023/10/21 06:00:00;;;;;;;5.30;4.00;;;12.90;99.90;;;;;;5033618;28;20463;-65
2023/10/21 06:02:27;;;;;;;4.80;3.60;;;12.90;99.90;;;;;;5033565;28;20469;-65
2023/10/21 06:04:54;;;;;;;5.00;3.90;;;13.00;99.90;;;;;;5033535;28;20558;-66
2023/10/21 06:07:21;;;;;;;4.87;4.37;;;13.00;99.90;;;;;;5032800;28;20487;-66
2023/10/21 06:09:48;;;;;;;4.20;3.80;;;12.90;99.90;;;;;;5033578;28;20455;-66
2023/10/21 06:12:15;;;;;;;4.13;3.57;;;12.90;99.90;;;;;;5036073;28;20906;-66
2023/10/21 06:14:42;;;;;;;4.90;4.40;;;12.90;99.90;;;;;;5036856;28;20491;-66
2023/10/21 06:17:12;;;;;;;5.40;4.07;;;12.80;99.90;;;;;;5036502;28;20525;-65
2023/10/21 06:19:39;;;;;;;6.90;4.50;;;12.80;99.90;;;;;;5036021;28;20879;-65
2023/10/21 06:22:07;;;;;;;6.73;4.77;;;12.80;99.90;;;;;;5036848;28;20466;-66
2023/10/21 06:24:34;;;;;;;5.10;4.60;;;12.80;99.90;;;;;;5036940;28;20462;-65
2023/10/21 06:27:01;;;;;;;5.83;3.73;;;12.80;99.90;;;;;;5036356;28;20910;-66
2023/10/21 06:29:28;;;;;;;5.67;3.30;;;12.80;99.90;;;;;;5036471;28;20557;-65
2023/10/21 06:31:55;;;;;;;4.40;3.73;;;12.90;99.90;;;;;;5037084;28;20562;-66
2023/10/21 06:34:24;;;;;;;6.07;3.60;;;12.90;99.90;;;;;;5036568;28;20759;-66
2023/10/21 06:36:51;;;;;;;4.07;3.67;;;12.90;99.90;;;;;;5036579;28;20481;-66
2023/10/21 06:39:20;;;;;;;4.67;3.33;;;13.00;99.90;;;;;;5036226;28;20896;-65
2023/10/21 06:41:47;;;;;;;3.80;2.93;;;13.00;99.90;;;;;;5036628;28;20466;-65
2023/10/21 06:44:16;;;;;;;4.07;3.17;;;13.00;99.90;;;;;;5036093;28;20761;-66
2023/10/21 06:46:43;;;;;;;4.47;3.03;;;13.00;99.90;;;;;;5036052;28;20508;-66
2023/10/21 06:49:10;;;;;;;4.30;2.90;;;13.10;99.90;;;;;;5034902;28;20952;-66
2023/10/21 06:51:39;;;;;;;3.93;2.70;;;13.10;99.90;;;;;;5035854;28;20508;-65
2023/10/21 06:54:06;;;;;;;3.93;2.70;;;13.10;99.90;;;;;;5036398;28;20506;-65
2023/10/21 06:56:35;;;;;;;4.20;2.60;;;13.20;99.90;;;;;;5035702;28;20947;-66
2023/10/21 06:59:03;;;;;;;4.50;2.40;;;13.20;99.90;;;;;;5035837;28;20526;-66
2023/10/21 07:01:34;;;;;;;6.43;2.40;;;13.20;99.90;;;;;;5036401;28;20748;-67
2023/10/21 07:04:01;;;;;;;2.50;2.00;;;13.20;99.90;;;;;;5036186;28;20482;-67
2023/10/21 07:06:29;;;;;;;2.80;2.20;;;13.30;99.90;;;;;;5036143;28;20487;-67
2023/10/21 07:08:57;;;;;;;4.50;2.50;;;13.30;99.90;;;;;;5035390;28;20491;-67
2023/10/21 07:11:25;;;;;;;4.20;2.10;;;13.30;99.90;;;;;;5035986;28;20463;-66
2023/10/21 07:13:52;;;;;;;5.20;2.27;;;13.30;99.90;;;;;;5036209;28;20894;-66
2023/10/21 07:16:19;;;;;;;4.53;2.23;;;13.30;99.90;;;;;;5036064;28;20882;-67
2023/10/21 07:18:48;;;;;;;3.30;2.63;;;13.30;99.90;;;;;;5035757;28;20461;-67
2023/10/21 07:21:16;;;;;;;2.90;1.90;;;13.40;99.90;;;;;;5035859;28;20467;-67
2023/10/21 07:23:43;;;;;;;3.83;2.37;;;13.40;99.90;;;;;;5035737;28;20762;-66
2023/10/21 07:26:12;;;;;;;3.80;2.27;;;13.40;99.90;;;;;;5036234;28;20455;-67
2023/10/21 07:28:39;;;;;;;3.17;1.90;;;13.50;99.90;;;;;;5035938;28;20754;-66
2023/10/21 07:31:08;;;;;;;4.50;2.30;;;13.60;99.90;;;;;;5035138;28;20554;-67
2023/10/21 07:33:36;;;;;;;5.50;2.27;;;13.60;99.90;;;;;;5031165;28;20941;-65
2023/10/21 07:36:04;;;;;;;3.10;2.30;;;13.80;99.90;;;;;;5033239;28;20491;-65
2023/10/21 07:38:31;;;;;;;2.97;2.40;;;13.90;99.90;;;;;;5033386;28;20461;-65
2023/10/21 07:40:59;;;;;;;3.83;2.23;;;14.10;99.90;;;;;;5032923;28;20459;-66
2023/10/21 07:43:27;;;;;;;3.40;2.33;;;14.30;99.90;;;;;;5032936;28;20459;-65
2023/10/21 07:45:55;;;;;;;3.17;1.70;;;14.40;99.90;;;;;;5033059;28;20750;-65
2023/10/21 07:48:22;;;;;;;2.50;2.00;;;14.40;99.90;;;;;;5032661;28;20510;-65
2023/10/21 07:50:54;;;;;;;2.90;1.90;;;14.60;99.90;;;;;;5033988;27;20516;-65
2023/10/21 07:53:21;;;;;;;2.83;1.63;;;14.70;99.90;;;;;;5033202;28;20470;-65
2023/10/21 07:55:50;;;;;;;2.90;1.80;;;14.70;99.90;;;;;;5033353;28;20560;-65
2023/10/21 07:58:17;;;;;;;2.30;1.80;;;14.90;99.90;;;;;;5033633;28;21018;-65
2023/10/21 08:00:46;;;;;;;2.50;1.50;;;14.90;99.90;;;;;;5034641;28;20467;-65
2023/10/21 08:03:13;;;;;;;2.30;1.37;;;14.70;99.90;;;;;;5034818;28;20735;-65
2023/10/21 08:05:40;;;;;;;2.30;1.57;;;14.50;99.90;;;;;;5034213;28;20520;-64
2023/10/21 08:08:08;;;;;;;2.33;1.70;;;14.40;99.90;;;;;;5034074;28;20522;-65
2023/10/21 08:10:35;;;;;;;3.07;1.80;;;14.30;99.90;;;;;;5034970;28;20942;-65
2023/10/21 08:13:03;;;;;;;2.40;1.60;;;14.10;99.90;;;;;;5034710;28;20918;-65
2023/10/21 08:15:31;;;;;;;2.70;1.30;;;13.90;99.90;;;;;;5034729;28;20499;-64
2023/10/21 08:18:00;;;;;;;2.83;1.60;;;13.90;99.90;;;;;;5034276;28;20562;-64
2023/10/21 08:20:27;;;;;;;2.10;1.20;;;13.80;99.90;;;;;;5035349;28;20946;-64
2023/10/21 08:22:55;;;;;;;2.60;1.80;;;13.90;99.90;;;;;;5035075;28;20504;-64
2023/10/21 08:25:22;;;;;;;3.40;1.63;;;14.20;99.90;;;;;;5034881;28;20896;-63
2023/10/21 08:27:49;;;;;;;3.17;1.30;;;14.60;99.90;;;;;;5034814;28;20459;-63
2023/10/21 08:30:16;;;;;;;3.10;1.63;;;14.70;99.90;;;;;;5034980;28;20880;-64
2023/10/21 08:32:44;;;;;;;2.20;1.30;;;14.70;99.90;;;;;;5035191;28;20463;-62
2023/10/21 08:35:13;;;;;;;2.23;1.23;;;14.50;99.90;;;;;;5033600;28;20463;-64
2023/10/21 08:37:43;;;;;;;3.07;1.60;;;14.40;99.90;;;;;;5034712;28;20494;-63
2023/10/21 08:40:11;;;;;;;3.40;1.70;;;14.30;99.90;;;;;;5034995;28;20466;-63
2023/10/21 08:42:38;;;;;;;3.20;1.57;;;14.30;99.90;;;;;;5035008;28;20437;-63
2023/10/21 08:45:09;;;;;;;2.60;1.40;;;14.60;99.90;;;;;;5034282;28;20437;-62
2023/10/21 08:47:38;;;;;;;2.20;1.40;;;14.90;99.90;;;;;;5034851;28;20459;-63
2023/10/21 08:50:07;;;;;;;2.20;1.30;;;15.10;1.00;;;;;;5034481;28;20441;-62
2023/10/21 08:52:37;;;;;;;2.60;1.50;;;15.00;99.90;;;;;;5034662;28;20490;-62
2023/10/21 08:55:05;;;;;;;2.70;1.60;;;15.00;99.90;;;;;;5034463;28;20488;-62
2023/10/21 08:57:33;;;;;;;2.83;1.70;;;15.30;1.00;;;;;;5034731;28;20773;-64
2023/10/21 09:00:00;;;;;;;2.20;1.30;;;15.40;99.90;;;;;;5034662;28;20751;-63
2023/10/21 09:02:28;;;;;;;2.90;1.53;;;15.40;1.00;;;;;;5034719;28;20546;-63
2023/10/21 09:04:55;;;;;;;2.13;1.00;;;15.10;99.90;;;;;;5034492;28;20455;-63
2023/10/21 09:07:22;;;;;;;2.67;1.20;;;14.90;99.90;;;;;;5034115;28;20565;-63
2023/10/21 09:09:51;;;;;;;4.10;1.50;;;14.80;99.90;;;;;;5034343;28;20466;-63
2023/10/21 09:12:18;;;;;;;2.20;1.53;;;14.70;99.90;;;;;;5034545;28;20470;-64
2023/10/21 09:14:56;;;;;;;2.10;1.20;;;14.50;99.90;;;;;;5033920;28;20524;-63
2023/10/21 09:17:35;;;;;;;2.40;1.10;;;14.30;99.90;;;;;;5034219;28;20539;-63
2023/10/21 09:20:06;;;;;;;2.30;1.70;;;14.20;99.90;;;;;;5034560;28;20910;-62
2023/10/21 09:22:35;;;;;;;2.27;1.33;;;14.20;99.90;;;;;;5034239;28;20466;-63
2023/10/21 09:25:18;;;;;;;2.60;1.37;;;14.20;99.90;;;;;;5034381;28;20455;-63
2023/10/21 09:27:46;;;;;;;2.47;1.30;;;14.20;99.90;;;;;;5034092;28;20467;-63
2023/10/21 09:30:18;;;;;;;2.27;1.40;;;14.30;99.90;;;;;;5034227;28;20444;-63
2023/10/21 09:32:46;;;;;;;2.17;1.60;;;14.30;99.90;;;;;;5034375;28;20535;-63
2023/10/21 09:35:24;;;;;;;5.70;1.70;;;14.30;99.90;;;;;;5033895;28;20463;-63
2023/10/21 09:37:51;;;;;;;2.67;1.67;;;14.40;99.90;;;;;;5034354;28;20764;-63
2023/10/21 09:40:21;;;;;;;3.43;1.80;;;14.50;99.90;;;;;;5034407;28;20486;-63
2023/10/21 09:42:52;;;;;;;2.70;1.50;;;14.40;99.90;;;;;;5034107;28;20454;-63
2023/10/21 09:45:20;;;;;;;2.40;1.40;;;14.70;99.90;;;;;;5035262;28;20459;-63
2023/10/21 09:47:47;;;;;;;2.83;1.57;;;15.20;99.90;;;;;;5037404;28;20504;-63
2023/10/21 09:50:16;;;;;;;2.90;1.30;;;15.70;99.90;;;;;;5037609;28;20754;-63
2023/10/21 09:52:53;;;;;;;4.17;1.70;;;16.00;99.90;;;;;;5037330;28;20898;-63
2023/10/21 09:55:25;;;;;;;2.73;1.40;;;16.40;99.90;;;;;;5037112;28;20461;-63
2023/10/21 09:57:54;;;;;;;3.70;1.40;;;16.70;99.90;;;;;;5037305;28;20494;-63
2023/10/21 10:00:30;;;;;;;3.60;1.70;;;16.80;99.90;;;;;;5028003;28;20478;-63
2023/10/21 10:02:59;;;;;;;2.60;1.50;;;16.60;99.90;;;;;;5018233;28;20939;-63
2023/10/21 10:05:27;;;;;;;3.23;1.53;;;16.70;76.10;;;;;;5016570;28;20472;-64
2023/10/21 10:07:55;;;;;;;2.40;1.50;;;16.60;41.20;;;;;;5017097;28;20819;-64
2023/10/21 10:10:27;;;;;;;2.47;1.33;;;16.80;39.50;;;;;;5016947;28;20541;-63
2023/10/21 10:12:59;;;;;;;3.90;2.00;;;16.80;1.00;;;;;;5016572;28;20783;-63
2023/10/21 10:15:33;;;;;;;3.47;1.43;;;16.90;1.00;;;;;;5016569;28;20467;-64
2023/10/21 10:18:03;;;;;;;3.70;1.97;;;17.20;1.00;;;;;;5017066;28;20838;-63
2023/10/21 10:20:31;;;;;;;7.83;1.57;;;17.00;1.00;;;;;;5017025;28;20464;-63
2023/10/21 10:23:07;;;;;;;6.37;1.70;;;16.60;1.00;;;;;;5016690;28;20808;-64
2023/10/21 10:25:38;;;;;;;4.10;1.60;;;16.40;1.00;;;;;;5017010;28;20467;-63
2023/10/21 10:28:08;;;;;;;3.67;1.67;;;16.40;1.00;;;;;;5016474;28;20463;-65
2023/10/21 10:30:38;;;;;;;3.27;2.07;;;16.10;1.00;;;;;;5016822;28;20945;-63
2023/10/21 10:33:07;;;;;;;2.50;1.53;;;15.80;1.00;;;;;;5034262;28;20704;-63
2023/10/21 10:35:40;;;;;;;3.10;1.43;;;15.70;1.00;;;;;;5035164;28;20974;-62
2023/10/21 10:38:25;;;;;;;2.83;1.80;;;15.60;1.00;;;;;;5034763;28;20487;-63
2023/10/21 10:41:05;;;;;;;3.80;1.97;;;15.70;1.00;;;;;;5035229;28;20466;-64
2023/10/21 10:43:33;;;;;;;3.77;2.23;;;16.10;1.00;;;;;;5034678;28;20463;-64
2023/10/21 10:46:01;;;;;;;3.17;1.87;;;16.30;1.00;;;;;;5035381;28;20999;-64
2023/10/21 10:48:31;;;;;;;5.03;2.00;;;16.70;1.00;;;;;;5034552;28;20486;-64
2023/10/21 10:51:00;;;;;;;3.20;1.87;;;16.90;1.00;;;;;;5036085;28;20737;-64
2023/10/21 10:53:28;;;;;;;2.10;1.50;;;17.10;1.00;;;;;;5036331;28;20490;-64
2023/10/21 10:55:57;;;;;;;5.83;1.70;;;17.30;1.00;;;;;;5036115;28;20903;-64
2023/10/21 10:58:34;;;;;;;2.90;2.00;;;17.40;1.00;;;;;;5035965;28;20553;-63
2023/10/21 11:01:07;;;;;;;3.40;1.70;;;17.30;1.00;;;;;;5034672;28;20463;-64
2023/10/21 11:03:36;;;;;;;4.10;1.57;;;17.40;1.00;;;;;;5016023;28;20957;-63
2023/10/21 11:06:08;;;;;;;2.50;1.80;;;17.50;1.00;;;;;;5016398;28;20511;-64
2023/10/21 11:08:38;;;;;;;3.00;1.43;;;17.30;1.00;;;;;;5015733;28;20571;-63
2023/10/21 11:11:10;;;;;;;3.07;1.53;;;17.00;1.00;;;;;;5015876;28;20460;-64
2023/10/21 11:13:38;;;;;;;3.00;2.03;;;16.60;1.00;;;;;;5015647;28;20778;-63
2023/10/21 11:16:07;;;;;;;3.83;1.83;;;16.10;1.00;;;;;;5015979;28;20456;-63
2023/10/21 11:18:35;;;;;;;2.73;1.57;;;15.70;1.00;;;;;;5023244;28;20850;-64
2023/10/21 11:21:03;;;;;;;2.77;1.40;;;15.90;1.00;;;;;;5034881;28;20463;-62
2023/10/21 11:23:40;;;;;;;4.10;1.70;;;16.10;1.00;;;;;;5034409;28;20517;-63
2023/10/21 11:26:09;;;;;;;2.63;1.70;;;16.20;1.00;;;;;;5034123;28;20969;-63
2023/10/21 11:28:38;;;;;;;4.00;2.03;;;16.50;1.00;;;;;;5034372;28;20430;-63
2023/10/21 11:31:08;;;;;;;3.40;2.30;;;16.60;1.00;;;;;;5033664;28;20462;-63
2023/10/21 11:33:35;;;;;;;3.60;2.00;;;16.40;1.00;;;;;;5034029;28;20499;-62
2023/10/21 11:36:03;;;;;;;3.20;2.07;;;16.20;1.00;;;;;;5035355;28;20546;-63
2023/10/21 11:38:31;;;;;;;2.67;1.10;;;16.50;1.00;;;;;;5035688;28;20470;-63
2023/10/21 11:41:00;;;;;;;3.60;1.60;;;16.80;1.00;;;;;;5034525;28;20744;-62
2023/10/21 11:43:29;;;;;;;5.00;1.80;;;16.90;1.00;;;;;;5034185;28;20818;-63
2023/10/21 11:45:57;;;;;;;7.97;1.63;;;17.20;1.00;;;;;;5034412;28;20455;-61
2023/10/21 11:48:26;;;;;;;2.20;1.67;;;17.60;1.00;;;;;;5034774;28;20775;-62
2023/10/21 11:50:54;;;;;;;2.80;1.83;;;17.80;1.00;;;;;;5034373;28;20498;-62
2023/10/21 11:53:21;;;;;;;1.90;1.50;;;17.70;1.00;;;;;;5034775;28;20459;-63
2023/10/21 12:05:13;;;;;;;4.47;2.30;;;17.60;99.90;;;;;;5013073;28;20440;-61
2023/10/21 12:16:25;;;;;;;6.10;1.80;;;18.10;99.90;;;;;;5012703;28;20459;-61
2023/10/21 12:32:44;;;;;;;3.23;2.00;;;16.40;99.90;;;;;;5056513;28;20445;-62
2023/10/21 12:40:44;;;;;;;4.90;2.10;;;17.40;99.90;;;;;;5034692;28;20589;-62
2023/10/21 12:43:23;;;;;;;4.80;2.30;;;17.70;99.90;;;;;;5034571;28;20470;-61
2023/10/21 12:45:53;;;;;;;3.30;2.10;;;18.00;99.90;;;;;;5035191;28;20761;-61
2023/10/21 12:48:22;;;;;;;7.00;2.17;;;18.30;99.90;;;;;;5035127;28;20729;-61
2023/10/21 12:50:50;;;;;;;4.67;2.67;;;18.50;99.90;;;;;;5034815;28;20474;-62
2023/10/21 12:53:18;;;;;;;3.40;2.00;;;18.00;99.90;;;;;;5034917;28;20915;-62
2023/10/21 12:55:46;;;;;;;5.77;2.57;;;17.60;99.90;;;;;;5034772;28;20946;-61
2023/10/21 12:58:14;;;;;;;4.27;2.27;;;17.30;99.70;;;;;;5034646;28;20494;-60
2023/10/21 13:00:44;;;;;;;5.23;2.07;;;17.10;91.80;;;;;;5034206;28;20463;-61
2023/10/21 13:03:12;;;;;;;7.80;2.60;;;16.90;86.60;;;;;;5033961;28;20460;-61
2023/10/21 13:05:46;;;;;;;6.00;2.30;;;16.60;60.20;;;;;;5033991;28;20465;-61
2023/10/21 13:08:13;;;;;;;7.30;2.90;;;16.30;41.00;;;;;;5034037;28;20535;-62
2023/10/21 13:10:40;;;;;;;5.60;1.97;;;16.10;26.10;;;;;;5034247;28;20747;-61
2023/10/21 13:13:08;;;;;;;7.67;2.47;;;16.20;32.50;;;;;;5034284;28;20520;-61
2023/10/21 13:15:36;;;;;;;7.47;2.30;;;16.70;58.60;;;;;;5034241;28;20515;-61
2023/10/21 13:18:07;;;;;;;7.90;2.50;;;17.30;71.90;;;;;;5034434;28;20840;-61
2023/10/21 13:20:37;;;;;;;6.23;2.60;;;17.60;80.20;;;;;;5033968;28;20491;-60
2023/10/21 13:23:06;;;;;;;6.30;2.60;;;17.60;59.80;;;;;;5034056;28;20463;-60
2023/10/21 13:25:34;;;;;;;5.50;2.40;;;17.30;37.50;;;;;;5037796;28;20521;-60
2023/10/21 13:28:01;;;;;;;5.60;2.77;;;17.30;47.80;;;;;;5033298;28;20451;-62
2023/10/21 13:30:32;;;;;;;5.90;2.60;;;17.60;70.50;;;;;;5032015;28;20817;-60